Flight Track Log - Related Links

Times and Time Zones

All times are in EDT time to prevent confusion due to time zone crossing. See the N960DL flight status page for this flight to view local times or setup timezone preferences in your user account.

Time Position Orientation Groundspeed Altitude Reporting Facility
EDT Latitude Longitude Course Direction KTS MPH feet Rate Location/Type
Fri 12:07:01 PM 39.0333 -84.6667 183° South 161 185 1,700  Level Cincinnati TRACON
Fri 12:07:49 PM 39.0000 -84.6667 180° South 172 198 3,500 2,189 Climbing Cincinnati TRACON
Fri 12:09:00 PM 38.6898 -84.6384 201° Southwest  Level FlightAware Approximate
Fri 12:09:40 PM 38.8875 -84.6919 190° South 246 283 7,500  Level Indianapolis Center
Fri 12:10:00 PM 38.5757 -84.6905 199° South  Level FlightAware Approximate
Fri 12:10:41 PM 38.8139 -84.7044 188° South 264 304 10,200  Level Indianapolis Center
Fri 12:11:00 PM 38.4644 -84.7500 180° South  Level FlightAware Approximate
Fri 12:11:43 PM 38.7336 -84.7103 183° South 287 330 11,900  Level Indianapolis Center
Fri 12:12:00 PM 38.3433 -84.7546 183° South  Level FlightAware Approximate
Fri 12:12:45 PM 38.6294 -84.7256 187° South 322 371 14,300  Level Indianapolis Center
Fri 12:13:46 PM 38.5381 -84.7408 187° South 328 377 16,500 1,902 Climbing Indianapolis Center
Fri 12:14:48 PM 38.4442 -84.7561 187° South 339 390 18,200 1,694 Climbing Indianapolis Center
Fri 12:15:50 PM 38.3458 -84.7644 184° South 354 407 20,000 1,366 Climbing Indianapolis Center
Fri 12:16:51 PM 38.2467 -84.7753 185° South 359 413 21,000 976 Climbing Indianapolis Center
Fri 12:17:53 PM 38.1214 -84.7858 184° South 383 441 22,000 488 Climbing Indianapolis Center
Fri 12:18:54 PM 38.0147 -84.7911 182° South 383 441 22,000 195 Level Indianapolis Center
Fri 12:19:56 PM 37.9044 -84.7703 172° South 398 458 22,400 484 Climbing Indianapolis Center
Fri 12:20:58 PM 37.7931 -84.7450 170° South 406 467 23,000 293 Climbing Indianapolis Center
Fri 12:21:59 PM 37.6736 -84.7197 170° South 430 495 23,000  Level Indianapolis Center
Fri 12:23:01 PM 37.5547 -84.6992 172° South 433 498 23,000  Level Indianapolis Center
Fri 12:24:03 PM 37.4361 -84.6761 171° South 432 497 23,000  Level Indianapolis Center
Fri 12:25:04 PM 37.2981 -84.6497 171° South 429 494 23,000  Level Indianapolis Center
Fri 12:26:06 PM 37.1797 -84.6269 171° South 430 495 23,000  Level Indianapolis Center
Fri 12:27:08 PM 37.0597 -84.6028 171° South 435 501 23,000  Level Indianapolis Center
Fri 12:28:10 PM 36.9444 -84.5814 172° South 432 497 23,000  Level Indianapolis Center
Fri 12:29:11 PM 36.8244 -84.5589 171° South 434 499 23,000  Level Indianapolis Center
Fri 12:30:13 PM 36.7050 -84.5364 171° South 433 498 23,000  Level Indianapolis Center
Fri 12:31:15 PM 36.5600 -84.5092 171° South 436 502 23,000  Level Indianapolis Center
Fri 12:32:16 PM 36.4419 -84.4878 172° South 429 494 23,000  Level Indianapolis Center
Fri 12:32:58 PM 36.3703 -84.4769 173° South 433 498 23,000  Level Atlanta Center
Fri 12:33:58 PM 36.2536 -84.4558 172° South 427 491 23,000  Level Atlanta Center
Fri 12:34:58 PM 36.1369 -84.4397 174° South 427 491 23,000  Level Atlanta Center
Fri 12:35:58 PM 36.0181 -84.4314 177° South 427 491 23,000  Level Atlanta Center
Fri 12:36:58 PM 35.8867 -84.4206 176° South 427 491 23,000  Level Atlanta Center
Fri 12:37:58 PM 35.7678 -84.4150 178° South 422 486 23,000  Level Atlanta Center
Fri 12:38:58 PM 35.6489 -84.4042 176° South 427 491 23,000  Level Atlanta Center
Fri 12:39:58 PM 35.5278 -84.3961 177° South 427 491 23,000  Level Atlanta Center
Fri 12:40:58 PM 35.4111 -84.3853 176° South 427 491 23,000  Level Atlanta Center
Fri 12:41:58 PM 35.2922 -84.3772 177° South 427 491 23,000  Level Atlanta Center
Fri 12:42:58 PM 35.1711 -84.3692 177° South 427 491 23,000  Level Atlanta Center
Fri 12:43:58 PM 35.0522 -84.3611 177° South 432 497 23,000  Level Atlanta Center
Fri 12:44:58 PM 34.9333 -84.3531 177° South 432 497 23,000  Level Atlanta Center
Fri 12:45:58 PM 34.8269 -84.3425 175° South 432 497 23,000  Level Atlanta Center
Fri 12:46:58 PM 34.7100 -84.3344 177° South 432 497 23,000  Level Atlanta Center
Fri 12:47:58 PM 34.5767 -84.3239 176° South 432 497 23,000  Level Atlanta Center
Fri 12:48:58 PM 34.4556 -84.3158 177° South 432 497 23,000  Level Atlanta Center
Fri 12:49:58 PM 34.3367 -84.3106 178° South 437 503 23,000  Level Atlanta Center
Fri 12:50:58 PM 34.2156 -84.3025 177° South 442 509 23,000  Level Atlanta Center
Fri 12:51:58 PM 34.0944 -84.3272 190° South 444 511 23,000  Level Atlanta Center
Fri 12:52:58 PM 33.9797 -84.3544 191° South 444 511 23,000  Level Atlanta Center
Fri 12:53:58 PM 33.8564 -84.3814 190° South 445 512 23,000  Level Atlanta Center
Fri 12:54:58 PM 33.7414 -84.4086 191° South 438 504 23,000  Level Atlanta Center
Fri 12:55:58 PM 33.6225 -84.4331 190° South 438 504 23,000  Level Atlanta Center
Fri 12:56:58 PM 33.5056 -84.4325 180° South 432 497 23,000  Level Atlanta Center
Fri 12:57:58 PM 33.3844 -84.4294 179° South 432 497 23,000  Level Atlanta Center
Fri 12:58:58 PM 33.2633 -84.4289 180° South 432 497 23,000  Level Atlanta Center
Fri 12:59:58 PM 33.1444 -84.4283 180° South 437 503 23,000  Level Atlanta Center
Fri 01:00:58 PM 33.0256 -84.4253 179° South 437 503 23,000  Level Atlanta Center
Fri 01:01:58 PM 32.9067 -84.4222 179° South 437 503 23,000  Level Atlanta Center
Fri 01:02:58 PM 32.7856 -84.4194 179° South 437 503 23,000  Level Atlanta Center
Fri 01:03:58 PM 32.6644 -84.4189 180° South 437 503 23,000  Level Atlanta Center
Fri 01:04:58 PM 32.5433 -84.4133 178° South 437 503 23,000  Level Atlanta Center
Fri 01:07:15 PM 32.2744 -84.4086 179° South 439 505 23,000  Level Jacksonville Center
Fri 01:08:15 PM 32.1492 -84.4042 178° South 439 505 23,000  Level Jacksonville Center
Fri 01:09:15 PM 32.0281 -84.4044 180° South 439 505 23,000  Level Jacksonville Center
Fri 01:10:15 PM 31.9069 -84.4000 178° South 439 505 23,000  Level Jacksonville Center
Fri 01:11:15 PM 31.7839 -84.4006 180° South 439 505 23,000  Level Jacksonville Center
Fri 01:12:15 PM 31.6586 -84.3961 178° South 439 505 23,000  Level Jacksonville Center
Fri 01:13:15 PM 31.5356 -84.3942 179° South 439 505 23,000  Level Jacksonville Center
Fri 01:14:15 PM 31.4122 -84.3922 179° South 439 505 23,000  Level Jacksonville Center
Fri 01:15:15 PM 31.2914 -84.3878 178° South 439 505 23,000  Level Jacksonville Center
Fri 01:16:15 PM 31.1514 -84.3856 179° South 445 512 23,000  Level Jacksonville Center
Fri 01:17:15 PM 31.0261 -84.3811 178° South 445 512 23,000  Level Jacksonville Center
Fri 01:18:15 PM 30.9031 -84.3792 179° South 445 512 23,000  Level Jacksonville Center
Fri 01:19:15 PM 30.7819 -84.3772 179° South 445 512 23,000  Level Jacksonville Center
Fri 01:20:15 PM 30.6589 -84.3731 178° South 440 506 23,000  Level Jacksonville Center
Fri 01:21:15 PM 30.5608 -84.3667 177° South 440 506 23,000  Level Jacksonville Center
Fri 01:22:15 PM 30.4383 -84.2972 154° Southeast 434 499 23,000  Level Jacksonville Center
Fri 01:23:15 PM 30.3286 -84.2233 150° Southeast 439 505 23,000  Level Jacksonville Center
Fri 01:24:15 PM 30.2103 -84.1450 150° Southeast 444 511 23,000  Level Jacksonville Center
Fri 01:25:15 PM 30.1022 -84.0761 151° Southeast 444 511 23,000  Level Jacksonville Center
Fri 01:26:15 PM 29.9922 -84.0053 151° Southeast 449 517 23,000  Level Jacksonville Center
Fri 01:27:15 PM 29.8822 -83.9369 152° Southeast 449 517 23,000  Level Jacksonville Center
Fri 01:28:15 PM 29.7722 -83.8617 149° Southeast 455 524 23,000  Level Jacksonville Center
Fri 01:29:15 PM 29.6642 -83.7914 151° Southeast 455 524 23,000  Level Jacksonville Center
Fri 01:30:15 PM 29.5561 -83.7233 151° Southeast 455 524 23,000  Level Jacksonville Center
Fri 01:31:15 PM 29.4458 -83.6533 151° Southeast 455 524 23,000  Level Jacksonville Center
Fri 01:32:15 PM 29.3356 -83.5833 151° Southeast 455 524 23,000  Level Jacksonville Center
Fri 01:33:15 PM 29.2275 -83.5136 151° Southeast 455 524 23,000  Level Jacksonville Center
Fri 01:34:15 PM 29.1150 -83.4417 151° Southeast 455 524 23,000  Level Jacksonville Center
Fri 01:35:15 PM 29.0025 -83.3697 151° Southeast 455 524 23,000 -550 Level Jacksonville Center
Fri 01:36:15 PM 28.8964 -83.3053 152° Southeast 455 524 21,900 -1,921 Descending Jacksonville Center
Fri 01:38:38 PM 28.6667 -83.1500 149° Southeast 401 461 16,500 -2,211 Descending Tampa TRACON
Fri 01:39:44 PM 28.5500 -83.0833 153° Southeast 396 456 14,200 -2,091 Descending Tampa TRACON
Fri 01:41:00 PM 28.4175 -83.0004 156° South  Level FlightAware Approximate
Fri 01:48:00 PM 27.9755 -82.5332 161° South  Level Estimated
Fri 01:49:00 PM 27.9755 -82.5332 161° South  Level Estimated
Fri 01:50:00 PM 27.9755 -82.5332 161° South  Level Estimated
Fri 01:51:00 PM 27.9755 -82.5332 161° South  Level Estimated
Fri 01:52:00 PM 27.9755 -82.5332 161° South  Level Estimated
Fri 01:53:00 PM 27.9755 -82.5332 161° South  Level Estimated

Login

Don't have an account? Register now (free) for customized features, flight alerts, and more!